sensor_id;sensor_type;location;lat;lon;timestamp;P1;durP1;ratioP1;P2;durP2;ratioP2
44366;SDS011;30086;57.660;12.000;2023-04-24T00:00:28;35.42;;;19.88;;
44366;SDS011;30086;57.660;12.000;2023-04-24T00:02:55;31.70;;;20.77;;
44366;SDS011;30086;57.660;12.000;2023-04-24T00:05:21;36.95;;;20.65;;
44366;SDS011;30086;57.660;12.000;2023-04-24T00:07:48;33.55;;;20.98;;
44366;SDS011;30086;57.660;12.000;2023-04-24T00:10:14;37.30;;;22.45;;
44366;SDS011;30086;57.660;12.000;2023-04-24T00:12:40;34.13;;;18.13;;
44366;SDS011;30086;57.660;12.000;2023-04-24T00:15:06;33.92;;;20.65;;
44366;SDS011;30086;57.660;12.000;2023-04-24T00:17:32;35.53;;;21.48;;
44366;SDS011;30086;57.660;12.000;2023-04-24T00:19:58;34.45;;;21.95;;
44366;SDS011;30086;57.660;12.000;2023-04-24T00:22:25;40.25;;;23.35;;
44366;SDS011;30086;57.660;12.000;2023-04-24T00:24:51;35.15;;;22.17;;
44366;SDS011;30086;57.660;12.000;2023-04-24T00:27:17;38.33;;;21.40;;
44366;SDS011;30086;57.660;12.000;2023-04-24T00:29:43;33.63;;;21.10;;
44366;SDS011;30086;57.660;12.000;2023-04-24T00:32:10;33.72;;;21.20;;
44366;SDS011;30086;57.660;12.000;2023-04-24T00:34:36;36.13;;;22.60;;
44366;SDS011;30086;57.660;12.000;2023-04-24T00:37:02;33.80;;;20.35;;
44366;SDS011;30086;57.660;12.000;2023-04-24T00:39:28;39.22;;;22.05;;
44366;SDS011;30086;57.660;12.000;2023-04-24T00:41:54;39.92;;;22.52;;
44366;SDS011;30086;57.660;12.000;2023-04-24T00:44:21;34.05;;;21.48;;
44366;SDS011;30086;57.660;12.000;2023-04-24T00:46:47;36.92;;;21.27;;
44366;SDS011;30086;57.660;12.000;2023-04-24T00:49:20;37.42;;;22.30;;
44366;SDS011;30086;57.660;12.000;2023-04-24T00:51:46;36.40;;;22.25;;
44366;SDS011;30086;57.660;12.000;2023-04-24T00:54:14;33.70;;;20.88;;
44366;SDS011;30086;57.660;12.000;2023-04-24T00:56:40;34.30;;;21.90;;
44366;SDS011;30086;57.660;12.000;2023-04-24T00:59:07;33.55;;;20.35;;
44366;SDS011;30086;57.660;12.000;2023-04-24T01:01:33;35.28;;;21.83;;
44366;SDS011;30086;57.660;12.000;2023-04-24T01:04:00;35.40;;;20.63;;
44366;SDS011;30086;57.660;12.000;2023-04-24T01:06:27;34.83;;;20.27;;
44366;SDS011;30086;57.660;12.000;2023-04-24T01:08:53;32.20;;;19.52;;
44366;SDS011;30086;57.660;12.000;2023-04-24T01:11:20;35.25;;;20.52;;
44366;SDS011;30086;57.660;12.000;2023-04-24T01:13:47;34.10;;;20.55;;
44366;SDS011;30086;57.660;12.000;2023-04-24T01:16:14;36.90;;;21.48;;
44366;SDS011;30086;57.660;12.000;2023-04-24T01:18:42;32.33;;;21.00;;
44366;SDS011;30086;57.660;12.000;2023-04-24T01:21:08;32.38;;;20.98;;
44366;SDS011;30086;57.660;12.000;2023-04-24T01:23:35;33.15;;;20.52;;
44366;SDS011;30086;57.660;12.000;2023-04-24T01:26:01;35.63;;;21.15;;
44366;SDS011;30086;57.660;12.000;2023-04-24T01:28:27;27.35;;;18.70;;
44366;SDS011;30086;57.660;12.000;2023-04-24T01:30:54;31.92;;;20.13;;
44366;SDS011;30086;57.660;12.000;2023-04-24T01:33:21;30.63;;;20.33;;
44366;SDS011;30086;57.660;12.000;2023-04-24T01:35:47;34.17;;;20.10;;
44366;SDS011;30086;57.660;12.000;2023-04-24T01:38:13;39.35;;;21.98;;
44366;SDS011;30086;57.660;12.000;2023-04-24T01:40:40;32.45;;;20.10;;
44366;SDS011;30086;57.660;12.000;2023-04-24T01:43:06;30.40;;;19.25;;
44366;SDS011;30086;57.660;12.000;2023-04-24T01:45:32;32.45;;;20.60;;
44366;SDS011;30086;57.660;12.000;2023-04-24T01:47:58;30.63;;;19.40;;
44366;SDS011;30086;57.660;12.000;2023-04-24T01:50:25;31.35;;;19.30;;
44366;SDS011;30086;57.660;12.000;2023-04-24T01:52:51;33.63;;;19.00;;
44366;SDS011;30086;57.660;12.000;2023-04-24T01:55:17;32.38;;;19.88;;
44366;SDS011;30086;57.660;12.000;2023-04-24T01:57:44;31.42;;;19.42;;
44366;SDS011;30086;57.660;12.000;2023-04-24T02:00:10;36.17;;;20.85;;
44366;SDS011;30086;57.660;12.000;2023-04-24T02:02:37;30.38;;;19.08;;
44366;SDS011;30086;57.660;12.000;2023-04-24T02:05:03;31.83;;;20.65;;
44366;SDS011;30086;57.660;12.000;2023-04-24T02:07:31;33.55;;;19.65;;
44366;SDS011;30086;57.660;12.000;2023-04-24T02:09:57;29.52;;;17.85;;
44366;SDS011;30086;57.660;12.000;2023-04-24T02:12:23;29.67;;;19.52;;
44366;SDS011;30086;57.660;12.000;2023-04-24T02:14:49;31.75;;;19.17;;
44366;SDS011;30086;57.660;12.000;2023-04-24T02:17:16;28.77;;;17.38;;
44366;SDS011;30086;57.660;12.000;2023-04-24T02:19:42;34.75;;;18.08;;
44366;SDS011;30086;57.660;12.000;2023-04-24T02:22:08;29.13;;;19.20;;
44366;SDS011;30086;57.660;12.000;2023-04-24T02:24:35;30.27;;;18.67;;
44366;SDS011;30086;57.660;12.000;2023-04-24T02:27:01;27.08;;;17.92;;
44366;SDS011;30086;57.660;12.000;2023-04-24T02:29:27;28.05;;;18.23;;
44366;SDS011;30086;57.660;12.000;2023-04-24T02:31:53;32.30;;;18.98;;
44366;SDS011;30086;57.660;12.000;2023-04-24T02:34:19;28.40;;;18.42;;
44366;SDS011;30086;57.660;12.000;2023-04-24T02:36:45;28.92;;;18.77;;
44366;SDS011;30086;57.660;12.000;2023-04-24T02:39:12;29.20;;;18.13;;
44366;SDS011;30086;57.660;12.000;2023-04-24T02:41:39;27.05;;;17.55;;
44366;SDS011;30086;57.660;12.000;2023-04-24T02:44:05;34.55;;;18.55;;
44366;SDS011;30086;57.660;12.000;2023-04-24T02:46:31;26.63;;;17.55;;
44366;SDS011;30086;57.660;12.000;2023-04-24T02:48:57;27.02;;;17.13;;
44366;SDS011;30086;57.660;12.000;2023-04-24T02:51:23;29.08;;;18.52;;
44366;SDS011;30086;57.660;12.000;2023-04-24T02:53:50;29.85;;;18.48;;
44366;SDS011;30086;57.660;12.000;2023-04-24T02:56:16;29.73;;;19.63;;
44366;SDS011;30086;57.660;12.000;2023-04-24T02:58:42;27.55;;;18.20;;
44366;SDS011;30086;57.660;12.000;2023-04-24T03:01:08;26.95;;;18.10;;
44366;SDS011;30086;57.660;12.000;2023-04-24T03:03:37;32.20;;;18.92;;
44366;SDS011;30086;57.660;12.000;2023-04-24T03:06:03;30.15;;;19.02;;
44366;SDS011;30086;57.660;12.000;2023-04-24T03:08:33;30.13;;;18.55;;
44366;SDS011;30086;57.660;12.000;2023-04-24T03:10:59;30.67;;;18.70;;
44366;SDS011;30086;57.660;12.000;2023-04-24T03:13:25;29.40;;;19.30;;
44366;SDS011;30086;57.660;12.000;2023-04-24T03:15:51;28.20;;;17.63;;
44366;SDS011;30086;57.660;12.000;2023-04-24T03:18:18;30.00;;;18.17;;
44366;SDS011;30086;57.660;12.000;2023-04-24T03:20:45;25.75;;;17.65;;
44366;SDS011;30086;57.660;12.000;2023-04-24T03:23:12;30.10;;;18.83;;
44366;SDS011;30086;57.660;12.000;2023-04-24T03:25:38;28.25;;;17.55;;
44366;SDS011;30086;57.660;12.000;2023-04-24T03:28:04;28.17;;;18.00;;
44366;SDS011;30086;57.660;12.000;2023-04-24T03:30:30;27.38;;;16.83;;
44366;SDS011;30086;57.660;12.000;2023-04-24T03:32:56;27.52;;;17.73;;
44366;SDS011;30086;57.660;12.000;2023-04-24T03:35:22;32.58;;;18.25;;
44366;SDS011;30086;57.660;12.000;2023-04-24T03:37:48;25.92;;;17.55;;
44366;SDS011;30086;57.660;12.000;2023-04-24T03:40:14;24.40;;;17.20;;
44366;SDS011;30086;57.660;12.000;2023-04-24T03:42:42;27.50;;;17.55;;
44366;SDS011;30086;57.660;12.000;2023-04-24T03:45:08;36.55;;;16.80;;
44366;SDS011;30086;57.660;12.000;2023-04-24T03:47:34;29.77;;;17.00;;
44366;SDS011;30086;57.660;12.000;2023-04-24T03:50:00;26.05;;;17.25;;
44366;SDS011;30086;57.660;12.000;2023-04-24T03:52:26;29.48;;;16.25;;
44366;SDS011;30086;57.660;12.000;2023-04-24T03:54:52;28.67;;;17.75;;
44366;SDS011;30086;57.660;12.000;2023-04-24T03:57:18;30.05;;;16.77;;
44366;SDS011;30086;57.660;12.000;2023-04-24T03:59:44;28.65;;;17.13;;
44366;SDS011;30086;57.660;12.000;2023-04-24T04:02:11;29.08;;;17.13;;
44366;SDS011;30086;57.660;12.000;2023-04-24T04:04:37;30.88;;;17.08;;
44366;SDS011;30086;57.660;12.000;2023-04-24T04:07:03;29.23;;;17.17;;
44366;SDS011;30086;57.660;12.000;2023-04-24T04:09:30;24.58;;;16.45;;
44366;SDS011;30086;57.660;12.000;2023-04-24T04:11:57;29.85;;;16.35;;
44366;SDS011;30086;57.660;12.000;2023-04-24T04:14:23;27.40;;;16.55;;
44366;SDS011;30086;57.660;12.000;2023-04-24T04:16:49;27.10;;;16.48;;
44366;SDS011;30086;57.660;12.000;2023-04-24T04:19:16;25.95;;;16.23;;
44366;SDS011;30086;57.660;12.000;2023-04-24T04:21:42;25.77;;;15.77;;
44366;SDS011;30086;57.660;12.000;2023-04-24T04:24:08;28.35;;;17.02;;
44366;SDS011;30086;57.660;12.000;2023-04-24T04:26:34;29.17;;;17.13;;
44366;SDS011;30086;57.660;12.000;2023-04-24T04:29:02;32.17;;;17.30;;
44366;SDS011;30086;57.660;12.000;2023-04-24T04:31:28;26.58;;;16.95;;
44366;SDS011;30086;57.660;12.000;2023-04-24T04:33:55;28.10;;;16.02;;
44366;SDS011;30086;57.660;12.000;2023-04-24T04:36:21;24.13;;;15.82;;
44366;SDS011;30086;57.660;12.000;2023-04-24T04:38:49;30.17;;;16.90;;
44366;SDS011;30086;57.660;12.000;2023-04-24T04:41:15;23.33;;;16.60;;
44366;SDS011;30086;57.660;12.000;2023-04-24T04:43:43;30.25;;;16.15;;
44366;SDS011;30086;57.660;12.000;2023-04-24T04:46:09;28.77;;;16.80;;
44366;SDS011;30086;57.660;12.000;2023-04-24T04:48:36;27.50;;;16.15;;
44366;SDS011;30086;57.660;12.000;2023-04-24T04:51:03;32.63;;;16.75;;
44366;SDS011;30086;57.660;12.000;2023-04-24T04:53:29;33.55;;;16.35;;
44366;SDS011;30086;57.660;12.000;2023-04-24T04:55:55;27.38;;;16.45;;
44366;SDS011;30086;57.660;12.000;2023-04-24T04:58:21;25.30;;;15.35;;
44366;SDS011;30086;57.660;12.000;2023-04-24T05:00:47;26.88;;;15.80;;
44366;SDS011;30086;57.660;12.000;2023-04-24T05:03:13;27.65;;;16.05;;
44366;SDS011;30086;57.660;12.000;2023-04-24T05:05:39;25.63;;;14.95;;
44366;SDS011;30086;57.660;12.000;2023-04-24T05:08:06;23.58;;;15.52;;
44366;SDS011;30086;57.660;12.000;2023-04-24T05:10:33;27.25;;;15.07;;
44366;SDS011;30086;57.660;12.000;2023-04-24T05:12:59;23.90;;;14.65;;
44366;SDS011;30086;57.660;12.000;2023-04-24T05:15:26;25.88;;;15.02;;
44366;SDS011;30086;57.660;12.000;2023-04-24T05:17:52;25.05;;;14.73;;
44366;SDS011;30086;57.660;12.000;2023-04-24T05:20:18;23.52;;;14.80;;
44366;SDS011;30086;57.660;12.000;2023-04-24T05:22:44;21.80;;;14.38;;
44366;SDS011;30086;57.660;12.000;2023-04-24T05:25:10;30.13;;;15.63;;
44366;SDS011;30086;57.660;12.000;2023-04-24T05:27:37;24.33;;;14.57;;
44366;SDS011;30086;57.660;12.000;2023-04-24T05:30:04;25.25;;;15.05;;
44366;SDS011;30086;57.660;12.000;2023-04-24T05:32:33;23.48;;;15.43;;
44366;SDS011;30086;57.660;12.000;2023-04-24T05:34:59;25.77;;;14.57;;
44366;SDS011;30086;57.660;12.000;2023-04-24T05:37:25;22.98;;;13.90;;
44366;SDS011;30086;57.660;12.000;2023-04-24T05:39:51;20.83;;;13.77;;
44366;SDS011;30086;57.660;12.000;2023-04-24T05:42:18;23.23;;;15.10;;
44366;SDS011;30086;57.660;12.000;2023-04-24T05:44:44;20.70;;;13.45;;
44366;SDS011;30086;57.660;12.000;2023-04-24T05:47:10;19.77;;;13.73;;
44366;SDS011;30086;57.660;12.000;2023-04-24T05:49:36;25.55;;;15.00;;
44366;SDS011;30086;57.660;12.000;2023-04-24T05:52:02;21.92;;;14.45;;
44366;SDS011;30086;57.660;12.000;2023-04-24T05:54:30;21.98;;;13.95;;
44366;SDS011;30086;57.660;12.000;2023-04-24T05:56:56;19.75;;;13.18;;
44366;SDS011;30086;57.660;12.000;2023-04-24T05:59:23;24.23;;;12.77;;
44366;SDS011;30086;57.660;12.000;2023-04-24T06:01:49;22.20;;;13.43;;
44366;SDS011;30086;57.660;12.000;2023-04-24T06:04:16;21.90;;;13.32;;
44366;SDS011;30086;57.660;12.000;2023-04-24T06:06:42;23.30;;;14.23;;
44366;SDS011;30086;57.660;12.000;2023-04-24T06:09:08;23.85;;;13.48;;
44366;SDS011;30086;57.660;12.000;2023-04-24T06:11:34;20.13;;;13.90;;
44366;SDS011;30086;57.660;12.000;2023-04-24T06:14:00;20.45;;;13.88;;
44366;SDS011;30086;57.660;12.000;2023-04-24T06:16:27;22.65;;;13.98;;
44366;SDS011;30086;57.660;12.000;2023-04-24T06:18:53;23.25;;;15.15;;
44366;SDS011;30086;57.660;12.000;2023-04-24T06:21:20;25.13;;;13.15;;
44366;SDS011;30086;57.660;12.000;2023-04-24T06:23:46;24.42;;;13.80;;
44366;SDS011;30086;57.660;12.000;2023-04-24T06:26:12;20.98;;;13.00;;
44366;SDS011;30086;57.660;12.000;2023-04-24T06:28:39;24.60;;;13.98;;
44366;SDS011;30086;57.660;12.000;2023-04-24T06:31:05;22.27;;;12.45;;
44366;SDS011;30086;57.660;12.000;2023-04-24T06:33:31;22.63;;;12.02;;
44366;SDS011;30086;57.660;12.000;2023-04-24T06:35:57;18.38;;;10.70;;
44366;SDS011;30086;57.660;12.000;2023-04-24T06:38:23;22.52;;;12.10;;
44366;SDS011;30086;57.660;12.000;2023-04-24T06:40:50;16.75;;;12.00;;
44366;SDS011;30086;57.660;12.000;2023-04-24T06:43:16;22.17;;;11.63;;
44366;SDS011;30086;57.660;12.000;2023-04-24T06:45:42;17.83;;;11.27;;
44366;SDS011;30086;57.660;12.000;2023-04-24T06:48:08;19.48;;;12.15;;
44366;SDS011;30086;57.660;12.000;2023-04-24T06:50:36;15.48;;;11.32;;
44366;SDS011;30086;57.660;12.000;2023-04-24T06:53:02;15.90;;;11.57;;
44366;SDS011;30086;57.660;12.000;2023-04-24T06:55:28;15.60;;;10.85;;
44366;SDS011;30086;57.660;12.000;2023-04-24T06:57:55;18.90;;;11.65;;
44366;SDS011;30086;57.660;12.000;2023-04-24T07:00:22;19.55;;;10.95;;
44366;SDS011;30086;57.660;12.000;2023-04-24T07:02:49;17.90;;;12.00;;
44366;SDS011;30086;57.660;12.000;2023-04-24T07:05:33;15.93;;;12.05;;
44366;SDS011;30086;57.660;12.000;2023-04-24T07:08:00;16.45;;;11.65;;
44366;SDS011;30086;57.660;12.000;2023-04-24T07:10:26;19.25;;;11.90;;
44366;SDS011;30086;57.660;12.000;2023-04-24T07:12:54;16.00;;;12.35;;
44366;SDS011;30086;57.660;12.000;2023-04-24T07:15:21;20.85;;;12.52;;
44366;SDS011;30086;57.660;12.000;2023-04-24T07:17:47;19.98;;;12.90;;
44366;SDS011;30086;57.660;12.000;2023-04-24T07:20:14;16.65;;;11.70;;
44366;SDS011;30086;57.660;12.000;2023-04-24T07:22:40;21.30;;;13.50;;
44366;SDS011;30086;57.660;12.000;2023-04-24T07:25:06;19.70;;;12.15;;
44366;SDS011;30086;57.660;12.000;2023-04-24T07:27:33;21.25;;;13.07;;
44366;SDS011;30086;57.660;12.000;2023-04-24T07:30:00;16.30;;;11.98;;
44366;SDS011;30086;57.660;12.000;2023-04-24T07:32:26;20.95;;;12.43;;
44366;SDS011;30086;57.660;12.000;2023-04-24T07:34:53;15.18;;;11.68;;
44366;SDS011;30086;57.660;12.000;2023-04-24T07:37:19;17.60;;;12.57;;
44366;SDS011;30086;57.660;12.000;2023-04-24T07:39:45;19.25;;;13.13;;
44366;SDS011;30086;57.660;12.000;2023-04-24T07:42:11;22.17;;;13.30;;
44366;SDS011;30086;57.660;12.000;2023-04-24T07:44:37;18.58;;;12.15;;
44366;SDS011;30086;57.660;12.000;2023-04-24T07:47:03;18.27;;;12.73;;
44366;SDS011;30086;57.660;12.000;2023-04-24T07:49:29;20.67;;;13.98;;
44366;SDS011;30086;57.660;12.000;2023-04-24T07:51:56;18.88;;;13.48;;
44366;SDS011;30086;57.660;12.000;2023-04-24T07:54:22;22.70;;;14.98;;
44366;SDS011;30086;57.660;12.000;2023-04-24T07:56:48;23.67;;;14.82;;
44366;SDS011;30086;57.660;12.000;2023-04-24T07:59:14;26.77;;;16.60;;
44366;SDS011;30086;57.660;12.000;2023-04-24T08:01:40;21.77;;;15.13;;
44366;SDS011;30086;57.660;12.000;2023-04-24T08:04:07;26.38;;;16.10;;
44366;SDS011;30086;57.660;12.000;2023-04-24T08:06:34;26.15;;;15.07;;
44366;SDS011;30086;57.660;12.000;2023-04-24T08:09:00;21.77;;;15.95;;
44366;SDS011;30086;57.660;12.000;2023-04-24T08:11:26;22.98;;;15.80;;
44366;SDS011;30086;57.660;12.000;2023-04-24T08:13:52;26.40;;;16.33;;
44366;SDS011;30086;57.660;12.000;2023-04-24T08:16:19;23.23;;;15.80;;
44366;SDS011;30086;57.660;12.000;2023-04-24T08:18:45;22.10;;;15.48;;
44366;SDS011;30086;57.660;12.000;2023-04-24T08:21:11;23.08;;;14.77;;
44366;SDS011;30086;57.660;12.000;2023-04-24T08:23:42;22.17;;;14.40;;
44366;SDS011;30086;57.660;12.000;2023-04-24T08:26:08;22.42;;;14.45;;
44366;SDS011;30086;57.660;12.000;2023-04-24T08:28:35;22.10;;;14.27;;
44366;SDS011;30086;57.660;12.000;2023-04-24T08:31:01;22.75;;;14.95;;
44366;SDS011;30086;57.660;12.000;2023-04-24T08:33:27;20.60;;;15.05;;
44366;SDS011;30086;57.660;12.000;2023-04-24T08:35:59;23.08;;;14.05;;
44366;SDS011;30086;57.660;12.000;2023-04-24T08:38:25;21.60;;;13.95;;
44366;SDS011;30086;57.660;12.000;2023-04-24T08:40:51;21.10;;;13.98;;
44366;SDS011;30086;57.660;12.000;2023-04-24T08:43:20;22.95;;;14.75;;
44366;SDS011;30086;57.660;12.000;2023-04-24T08:45:49;22.23;;;13.95;;
44366;SDS011;30086;57.660;12.000;2023-04-24T08:48:15;17.63;;;13.05;;
44366;SDS011;30086;57.660;12.000;2023-04-24T08:50:41;18.00;;;12.60;;
44366;SDS011;30086;57.660;12.000;2023-04-24T08:53:08;18.58;;;11.30;;
44366;SDS011;30086;57.660;12.000;2023-04-24T08:55:36;14.93;;;10.63;;
44366;SDS011;30086;57.660;12.000;2023-04-24T08:58:02;14.38;;;9.95;;
44366;SDS011;30086;57.660;12.000;2023-04-24T09:00:31;18.60;;;10.02;;
44366;SDS011;30086;57.660;12.000;2023-04-24T09:02:57;11.82;;;9.23;;
44366;SDS011;30086;57.660;12.000;2023-04-24T09:05:23;14.57;;;9.35;;
44366;SDS011;30086;57.660;12.000;2023-04-24T09:07:54;14.60;;;9.45;;
44366;SDS011;30086;57.660;12.000;2023-04-24T09:10:23;17.05;;;10.00;;
44366;SDS011;30086;57.660;12.000;2023-04-24T09:12:50;12.73;;;8.32;;
44366;SDS011;30086;57.660;12.000;2023-04-24T09:15:16;13.02;;;8.38;;
44366;SDS011;30086;57.660;12.000;2023-04-24T09:17:43;12.45;;;8.30;;
44366;SDS011;30086;57.660;12.000;2023-04-24T09:20:09;12.57;;;7.80;;
44366;SDS011;30086;57.660;12.000;2023-04-24T09:22:36;15.63;;;7.78;;
44366;SDS011;30086;57.660;12.000;2023-04-24T09:25:04;11.13;;;7.57;;
44366;SDS011;30086;57.660;12.000;2023-04-24T09:27:32;11.52;;;8.35;;
44366;SDS011;30086;57.660;12.000;2023-04-24T09:29:58;11.40;;;8.27;;
44366;SDS011;30086;57.660;12.000;2023-04-24T09:32:24;13.98;;;8.32;;
44366;SDS011;30086;57.660;12.000;2023-04-24T09:37:37;11.80;;;8.30;;
44366;SDS011;30086;57.660;12.000;2023-04-24T09:42:35;13.35;;;8.55;;
44366;SDS011;30086;57.660;12.000;2023-04-24T09:45:02;13.93;;;8.88;;
44366;SDS011;30086;57.660;12.000;2023-04-24T09:47:35;9.90;;;7.00;;
44366;SDS011;30086;57.660;12.000;2023-04-24T09:50:08;9.02;;;6.85;;
44366;SDS011;30086;57.660;12.000;2023-04-24T09:52:34;10.30;;;7.37;;
44366;SDS011;30086;57.660;12.000;2023-04-24T09:55:00;12.60;;;7.25;;
44366;SDS011;30086;57.660;12.000;2023-04-24T09:57:26;12.18;;;8.00;;
44366;SDS011;30086;57.660;12.000;2023-04-24T09:59:53;11.43;;;7.22;;
44366;SDS011;30086;57.660;12.000;2023-04-24T10:02:19;13.57;;;8.02;;
44366;SDS011;30086;57.660;12.000;2023-04-24T10:04:56;12.13;;;8.05;;
44366;SDS011;30086;57.660;12.000;2023-04-24T10:07:27;11.27;;;7.75;;
44366;SDS011;30086;57.660;12.000;2023-04-24T10:09:53;11.27;;;7.63;;
44366;SDS011;30086;57.660;12.000;2023-04-24T10:12:23;10.35;;;7.90;;
44366;SDS011;30086;57.660;12.000;2023-04-24T10:14:53;12.20;;;8.55;;
44366;SDS011;30086;57.660;12.000;2023-04-24T10:17:43;11.25;;;8.10;;
44366;SDS011;30086;57.660;12.000;2023-04-24T10:20:19;12.80;;;8.70;;
44366;SDS011;30086;57.660;12.000;2023-04-24T10:22:47;11.60;;;7.47;;
44366;SDS011;30086;57.660;12.000;2023-04-24T10:25:19;10.98;;;8.13;;
44366;SDS011;30086;57.660;12.000;2023-04-24T10:27:46;11.85;;;8.60;;
44366;SDS011;30086;57.660;12.000;2023-04-24T10:30:19;10.90;;;8.73;;
44366;SDS011;30086;57.660;12.000;2023-04-24T10:32:46;15.07;;;8.30;;
44366;SDS011;30086;57.660;12.000;2023-04-24T10:35:14;11.70;;;7.18;;
44366;SDS011;30086;57.660;12.000;2023-04-24T10:37:50;9.55;;;6.93;;
44366;SDS011;30086;57.660;12.000;2023-04-24T10:40:40;9.82;;;6.90;;
44366;SDS011;30086;57.660;12.000;2023-04-24T10:43:27;9.40;;;6.63;;
44366;SDS011;30086;57.660;12.000;2023-04-24T10:46:03;9.35;;;7.10;;
44366;SDS011;30086;57.660;12.000;2023-04-24T10:48:31;8.35;;;6.13;;
44366;SDS011;30086;57.660;12.000;2023-04-24T10:51:01;7.55;;;6.13;;
44366;SDS011;30086;57.660;12.000;2023-04-24T10:53:29;9.63;;;6.22;;
44366;SDS011;30086;57.660;12.000;2023-04-24T10:56:00;7.63;;;6.07;;
44366;SDS011;30086;57.660;12.000;2023-04-24T10:58:38;7.57;;;6.13;;
44366;SDS011;30086;57.660;12.000;2023-04-24T11:01:05;9.15;;;6.50;;
44366;SDS011;30086;57.660;12.000;2023-04-24T11:03:32;7.28;;;5.93;;
44366;SDS011;30086;57.660;12.000;2023-04-24T11:06:06;7.35;;;6.07;;
44366;SDS011;30086;57.660;12.000;2023-04-24T11:08:45;8.50;;;5.82;;
44366;SDS011;30086;57.660;12.000;2023-04-24T11:11:12;7.88;;;6.15;;
44366;SDS011;30086;57.660;12.000;2023-04-24T11:21:43;11.00;;;6.28;;
44366;SDS011;30086;57.660;12.000;2023-04-24T11:24:23;7.95;;;5.22;;
44366;SDS011;30086;57.660;12.000;2023-04-24T11:26:51;7.13;;;5.15;;
44366;SDS011;30086;57.660;12.000;2023-04-24T11:29:17;7.38;;;5.00;;
44366;SDS011;30086;57.660;12.000;2023-04-24T11:31:45;6.90;;;5.05;;
44366;SDS011;30086;57.660;12.000;2023-04-24T11:34:16;6.05;;;4.57;;
44366;SDS011;30086;57.660;12.000;2023-04-24T11:36:43;7.40;;;4.85;;
44366;SDS011;30086;57.660;12.000;2023-04-24T11:39:10;7.53;;;5.63;;
44366;SDS011;30086;57.660;12.000;2023-04-24T11:41:36;7.05;;;5.57;;
44366;SDS011;30086;57.660;12.000;2023-04-24T11:44:03;6.88;;;5.63;;
44366;SDS011;30086;57.660;12.000;2023-04-24T11:46:31;6.93;;;5.05;;
44366;SDS011;30086;57.660;12.000;2023-04-24T11:48:58;7.25;;;5.28;;
44366;SDS011;30086;57.660;12.000;2023-04-24T11:51:25;8.07;;;4.78;;
44366;SDS011;30086;57.660;12.000;2023-04-24T11:53:55;6.72;;;4.90;;
44366;SDS011;30086;57.660;12.000;2023-04-24T11:56:22;5.93;;;4.57;;
44366;SDS011;30086;57.660;12.000;2023-04-24T11:58:48;6.28;;;5.18;;
44366;SDS011;30086;57.660;12.000;2023-04-24T12:01:15;7.40;;;4.60;;
44366;SDS011;30086;57.660;12.000;2023-04-24T12:03:41;7.10;;;4.57;;
44366;SDS011;30086;57.660;12.000;2023-04-24T12:06:10;6.95;;;4.47;;
44366;SDS011;30086;57.660;12.000;2023-04-24T12:08:58;6.63;;;4.93;;
44366;SDS011;30086;57.660;12.000;2023-04-24T12:11:26;7.22;;;4.65;;
44366;SDS011;30086;57.660;12.000;2023-04-24T12:13:52;10.32;;;5.10;;
44366;SDS011;30086;57.660;12.000;2023-04-24T12:16:18;5.97;;;4.32;;
44366;SDS011;30086;57.660;12.000;2023-04-24T12:18:44;4.75;;;4.05;;
44366;SDS011;30086;57.660;12.000;2023-04-24T12:21:17;5.68;;;4.30;;
44366;SDS011;30086;57.660;12.000;2023-04-24T12:23:44;8.33;;;4.47;;
44366;SDS011;30086;57.660;12.000;2023-04-24T12:26:11;5.43;;;3.78;;
44366;SDS011;30086;57.660;12.000;2023-04-24T12:28:37;5.40;;;3.67;;
44366;SDS011;30086;57.660;12.000;2023-04-24T12:31:04;4.80;;;4.15;;
44366;SDS011;30086;57.660;12.000;2023-04-24T12:33:34;5.05;;;4.20;;
44366;SDS011;30086;57.660;12.000;2023-04-24T12:36:00;6.03;;;3.78;;
44366;SDS011;30086;57.660;12.000;2023-04-24T12:38:27;7.20;;;3.67;;
44366;SDS011;30086;57.660;12.000;2023-04-24T12:41:04;4.65;;;3.33;;
44366;SDS011;30086;57.660;12.000;2023-04-24T12:43:31;6.82;;;3.97;;
44366;SDS011;30086;57.660;12.000;2023-04-24T12:45:57;5.32;;;3.83;;
44366;SDS011;30086;57.660;12.000;2023-04-24T12:48:24;4.63;;;3.42;;
44366;SDS011;30086;57.660;12.000;2023-04-24T12:50:50;13.02;;;4.85;;
44366;SDS011;30086;57.660;12.000;2023-04-24T12:53:16;4.82;;;3.42;;
44366;SDS011;30086;57.660;12.000;2023-04-24T12:55:43;8.02;;;4.40;;
44366;SDS011;30086;57.660;12.000;2023-04-24T12:58:10;4.97;;;3.72;;
44366;SDS011;30086;57.660;12.000;2023-04-24T13:00:36;5.55;;;3.75;;
44366;SDS011;30086;57.660;12.000;2023-04-24T13:03:03;5.93;;;4.03;;
44366;SDS011;30086;57.660;12.000;2023-04-24T13:05:32;5.15;;;3.70;;
44366;SDS011;30086;57.660;12.000;2023-04-24T13:07:58;6.13;;;4.20;;
44366;SDS011;30086;57.660;12.000;2023-04-24T13:10:24;4.07;;;3.50;;
44366;SDS011;30086;57.660;12.000;2023-04-24T13:12:50;6.63;;;3.95;;
44366;SDS011;30086;57.660;12.000;2023-04-24T13:15:17;6.25;;;3.88;;
44366;SDS011;30086;57.660;12.000;2023-04-24T13:17:43;4.63;;;3.40;;
44366;SDS011;30086;57.660;12.000;2023-04-24T13:20:09;10.13;;;3.92;;
44366;SDS011;30086;57.660;12.000;2023-04-24T13:22:35;4.25;;;3.70;;
44366;SDS011;30086;57.660;12.000;2023-04-24T13:25:02;5.03;;;3.50;;
44366;SDS011;30086;57.660;12.000;2023-04-24T13:27:28;6.45;;;3.65;;
44366;SDS011;30086;57.660;12.000;2023-04-24T13:29:54;4.78;;;4.05;;
44366;SDS011;30086;57.660;12.000;2023-04-24T13:32:20;5.13;;;4.00;;
44366;SDS011;30086;57.660;12.000;2023-04-24T13:34:47;6.70;;;4.38;;
44366;SDS011;30086;57.660;12.000;2023-04-24T13:37:13;6.70;;;4.20;;
44366;SDS011;30086;57.660;12.000;2023-04-24T13:39:40;7.05;;;4.20;;
44366;SDS011;30086;57.660;12.000;2023-04-24T13:42:06;5.00;;;3.58;;
44366;SDS011;30086;57.660;12.000;2023-04-24T13:44:32;13.35;;;4.57;;
44366;SDS011;30086;57.660;12.000;2023-04-24T13:46:58;4.85;;;3.55;;
44366;SDS011;30086;57.660;12.000;2023-04-24T13:49:24;4.53;;;3.60;;
44366;SDS011;30086;57.660;12.000;2023-04-24T13:51:51;5.78;;;3.92;;
44366;SDS011;30086;57.660;12.000;2023-04-24T13:54:18;6.38;;;3.72;;
44366;SDS011;30086;57.660;12.000;2023-04-24T13:56:44;4.43;;;3.65;;
44366;SDS011;30086;57.660;12.000;2023-04-24T13:59:11;13.52;;;4.47;;
44366;SDS011;30086;57.660;12.000;2023-04-24T14:01:38;5.38;;;4.15;;
44366;SDS011;30086;57.660;12.000;2023-04-24T14:04:04;6.57;;;3.90;;
44366;SDS011;30086;57.660;12.000;2023-04-24T14:06:30;8.60;;;5.00;;
44366;SDS011;30086;57.660;12.000;2023-04-24T14:08:57;7.72;;;5.68;;
44366;SDS011;30086;57.660;12.000;2023-04-24T14:11:23;9.32;;;6.15;;
44366;SDS011;30086;57.660;12.000;2023-04-24T14:13:49;9.63;;;6.40;;
44366;SDS011;30086;57.660;12.000;2023-04-24T14:16:15;8.80;;;6.18;;
44366;SDS011;30086;57.660;12.000;2023-04-24T14:18:41;12.30;;;7.20;;
44366;SDS011;30086;57.660;12.000;2023-04-24T14:21:07;9.90;;;7.82;;
44366;SDS011;30086;57.660;12.000;2023-04-24T14:23:34;8.15;;;6.35;;
44366;SDS011;30086;57.660;12.000;2023-04-24T14:26:00;11.23;;;7.63;;
44366;SDS011;30086;57.660;12.000;2023-04-24T14:28:26;14.30;;;7.53;;